Du har inga inställningar för hoppväder.nu

Hoppväder.nu

Senast uppdaterat 00:10

UTC-tid

2019-10-20 kl. 22:10


Sol och måne

Solen går upp 7:54 och går ner 18:19 (beräknade cirkatider)
Nästa fullmåne blir om 22 dagar (2019-11-12)

METAR

ESKN (Skavsta)
(20 minuter sedan)
ESKN 202150Z 27002KT 9000 MIFG SCT022 BKN041 07/07 Q1013=



ESSB (Bromma)
(20 minuter sedan)
ESSB 202150Z AUTO 30003KT 9999 OVC005/// 08/08 Q1014=



ESOE (Örebro)
(20 minuter sedan)
ESOE 202150Z AUTO 35005KT 0350 R01/1600D R19/1000N FG NCD 09/08 Q1013=



ESSL (Linköping)
(20 minuter sedan)
ESSL 202150Z AUTO VRB02KT 3300 FEW024/// 08/08 Q1014=



ESSP (Norrköping)
(20 minuter sedan)
ESSP 202150Z AUTO 00000KT 0200 R09/0650U R27/0800N FG SCT000/// 03/03 Q1014=



TAF

ESKN (Skavsta)
(280 minuter sedan)
ESKN 201730Z 2018/2118 27003KT 9999 MIFG NSC PROB40 2018/2021 0800 BCFG TEMPO 2021/2024 0500 FG VV002 BECMG 2100/2102 1400 BR OVC003 TEMPO 2102/2106 5000 NSW BKN008 BECMG 2106/2108 9999 NSW SCT010 BKN030 TEMPO 2108/2115 BKN008=



ESSB (Bromma)
(280 minuter sedan)
ESSB 201730Z 2018/2020 28004KT 9999 SCT025 TEMPO 2018/2020 BKN004=



ESOE (Örebro)
(18 minuter sedan)
ESOE AMD 202152Z 2021/2022 35005KT 0400 FG OVC002 PROB40 2021/2022 1000 BR SCT002=



ESSL (Linköping)
(160 minuter sedan)
ESSL 201930Z 2020/2022 20003KT CAVOK BECMG 2020/2022 0200 FG VV002=



ESSP (Norrköping)
ESSP





Kodnycklar till TAF och METAR






LHP

(Nyköping är område G1b i Södra delen)

Prognos är inte uppdaterad




Spotting

Hur fungerar spotthjälpen och Vindkartan?

Markvind är ca 0 m/s.



Vindkartan

Senast uppdaterad 00:10




All data kommer från LFV.se